Time;durP1;ratioP1;P1;durP2;ratioP2;P2;SDS_P1;SDS_P2;PMS_P1;PMS_P2;Temp;Humidity;BMP_temperature;BMP_pressure;BME280_temperature;BME280_humidity;BME280_pressure;Samples;Min_cycle;Max_cycle;Signal;HPM_P1;HPM_P2
2021/04/07 00:02:06;;;;;;;3.90;2.60;;;-0.70;99.90;;;;;;5075788;28;20024;-66
2021/04/07 00:04:34;;;;;;;6.43;2.90;;;-0.60;99.90;;;;;;5094413;28;20107;-65
2021/04/07 00:07:00;;;;;;;6.97;2.90;;;-0.60;99.90;;;;;;5076165;28;20461;-66
2021/04/07 00:09:26;;;;;;;4.85;2.85;;;-0.60;99.90;;;;;;5094413;28;20027;-65
2021/04/07 00:11:52;;;;;;;4.28;2.67;;;-0.50;99.90;;;;;;5094627;28;20024;-65
2021/04/07 00:14:18;;;;;;;4.60;2.67;;;-0.50;99.90;;;;;;5093336;28;20054;-65
2021/04/07 00:16:45;;;;;;;3.30;2.55;;;-0.50;99.90;;;;;;5094138;28;20370;-63
2021/04/07 00:19:10;;;;;;;4.88;2.60;;;-0.50;99.90;;;;;;5093345;28;20028;-64
2021/04/07 00:21:36;;;;;;;4.85;2.40;;;-0.50;99.90;;;;;;5094012;28;20389;-62
2021/04/07 00:24:02;;;;;;;4.72;2.65;;;-0.50;99.90;;;;;;5093507;28;20503;-66
2021/04/07 00:26:28;;;;;;;4.88;2.33;;;-0.50;99.90;;;;;;5094557;28;20111;-61
2021/04/07 00:28:54;;;;;;;5.03;2.58;;;-0.40;99.90;;;;;;5094024;28;20432;-64
2021/04/07 00:31:19;;;;;;;3.70;2.28;;;-0.40;99.90;;;;;;5093485;28;20028;-59
2021/04/07 00:33:45;;;;;;;4.70;2.92;;;-0.40;99.90;;;;;;5093586;28;20024;-62
2021/04/07 00:36:11;;;;;;;5.82;2.22;;;-0.40;99.90;;;;;;5093174;28;20125;-65
2021/04/07 00:38:36;;;;;;;9.93;3.50;;;-0.50;99.90;;;;;;5093823;28;20031;-62
2021/04/07 00:41:02;;;;;;;6.38;2.38;;;-0.50;99.90;;;;;;5093391;28;20504;-66
2021/04/07 00:43:28;;;;;;;5.68;2.47;;;-0.60;99.90;;;;;;5093580;28;20024;-64
2021/04/07 00:45:54;;;;;;;4.03;2.42;;;-0.60;99.90;;;;;;5076637;28;20484;-64
2021/04/07 00:48:20;;;;;;;3.72;2.13;;;-0.50;99.90;;;;;;5093243;28;20167;-60
2021/04/07 00:50:46;;;;;;;5.65;2.80;;;-0.50;99.90;;;;;;5093847;28;20036;-63
2021/04/07 00:53:12;;;;;;;4.05;2.35;;;-0.50;99.90;;;;;;5092778;28;20453;-63
2021/04/07 00:55:46;;;;;;;5.93;2.55;;;-0.40;99.90;;;;;;5093972;28;20028;-62
2021/04/07 00:58:12;;;;;;;4.75;2.83;;;-0.50;99.90;;;;;;5092663;28;20390;-64
2021/04/07 01:00:39;;;;;;;4.97;2.80;;;-0.40;99.90;;;;;;5093694;28;20028;-63
2021/04/07 01:03:06;;;;;;;5.53;2.70;;;-0.40;99.90;;;;;;5074409;28;20038;-66
2021/04/07 01:05:32;;;;;;;3.42;2.80;;;-0.50;99.90;;;;;;5088246;28;20032;-62
2021/04/07 01:07:58;;;;;;;8.20;2.90;;;-0.50;99.90;;;;;;5092889;28;20366;-66
2021/04/07 01:10:25;;;;;;;3.08;2.30;;;-0.50;99.90;;;;;;5092652;28;20069;-65
2021/04/07 01:12:52;;;;;;;7.75;2.38;;;-0.50;99.90;;;;;;5093284;28;20048;-62
2021/04/07 01:15:18;;;;;;;3.17;2.50;;;-0.50;99.90;;;;;;5092308;28;20036;-60
2021/04/07 01:17:45;;;;;;;7.45;2.63;;;-0.50;99.90;;;;;;5093412;28;20024;-61
2021/04/07 01:20:13;;;;;;;4.75;2.67;;;-0.50;99.90;;;;;;5092460;28;20071;-62
2021/04/07 01:22:40;;;;;;;9.30;3.10;;;-0.50;99.90;;;;;;5093136;28;20032;-63
2021/04/07 01:25:07;;;;;;;8.75;2.97;;;-0.60;99.90;;;;;;5092118;28;20036;-65
2021/04/07 01:27:34;;;;;;;7.38;3.13;;;-0.60;99.90;;;;;;5093201;28;20032;-62
2021/04/07 01:30:00;;;;;;;4.57;3.10;;;-0.70;99.90;;;;;;5092802;28;20028;-62
2021/04/07 01:32:26;;;;;;;5.75;3.08;;;-0.70;99.90;;;;;;5092230;28;20024;-62
2021/04/07 01:34:52;;;;;;;6.78;3.50;;;-0.70;99.90;;;;;;5074172;28;20385;-62
2021/04/07 01:37:17;;;;;;;5.30;3.20;;;-0.80;99.90;;;;;;5092086;28;20032;-64
2021/04/07 01:39:43;;;;;;;6.75;3.35;;;-0.80;99.90;;;;;;5092665;28;20028;-65
2021/04/07 01:42:10;;;;;;;4.88;3.47;;;-0.80;99.90;;;;;;5092187;28;20032;-62
2021/04/07 01:44:40;;;;;;;4.45;2.90;;;-0.90;99.90;;;;;;5074586;28;20024;-65
2021/04/07 01:47:06;;;;;;;;;;;-0.90;99.90;;;;;;5092379;28;20458;-66
2021/04/07 01:49:33;;;;;;;5.28;3.25;;;-0.90;99.90;;;;;;5092769;28;19949;-61
2021/04/07 01:51:59;;;;;;;4.28;3.40;;;-0.90;99.90;;;;;;5092513;28;20020;-62
2021/04/07 01:54:25;;;;;;;4.55;3.10;;;-0.90;99.90;;;;;;5090871;28;20107;-60
2021/04/07 01:56:56;;;;;;;9.40;3.85;;;-0.90;99.90;;;;;;5092581;28;20417;-63
2021/04/07 01:59:24;;;;;;;5.90;3.90;;;-0.80;99.90;;;;;;5073575;28;20020;-62
2021/04/07 02:01:51;;;;;;;6.72;3.20;;;-0.90;99.90;;;;;;5092490;28;20043;-62
2021/04/07 02:04:18;;;;;;;8.45;3.67;;;-0.90;99.90;;;;;;5091018;28;20541;-65
2021/04/07 02:06:45;;;;;;;7.70;4.30;;;-0.90;99.90;;;;;;5074244;28;20027;-64
2021/04/07 02:09:11;;;;;;;6.40;3.83;;;-0.90;99.90;;;;;;5091185;28;20028;-62
2021/04/07 02:11:44;;;;;;;8.30;4.40;;;-1.00;99.90;;;;;;5074545;28;20461;-64
2021/04/07 02:14:12;;;;;;;9.52;4.40;;;-0.90;99.90;;;;;;5091265;28;20130;-64
2021/04/07 02:16:38;;;;;;;8.40;4.28;;;-1.00;99.90;;;;;;5091842;28;20032;-65
2021/04/07 02:19:08;;;;;;;7.20;4.32;;;-1.00;99.90;;;;;;5091714;28;20028;-66
2021/04/07 02:21:35;;;;;;;5.80;3.97;;;-1.00;99.90;;;;;;5092248;28;20050;-62
2021/04/07 02:24:01;;;;;;;7.18;4.05;;;-1.00;99.90;;;;;;5073789;28;20028;-65
2021/04/07 02:26:26;;;;;;;12.32;4.60;;;-1.10;99.90;;;;;;5091217;28;20657;-65
2021/04/07 02:28:52;;;;;;;6.40;4.25;;;-1.10;99.90;;;;;;5092130;28;20028;-61
2021/04/07 02:31:18;;;;;;;6.78;4.28;;;-1.00;99.90;;;;;;5091109;28;20024;-65
2021/04/07 02:33:43;;;;;;;10.18;4.60;;;-1.00;99.90;;;;;;5091483;28;20024;-60
2021/04/07 02:36:09;;;;;;;9.73;4.50;;;-1.10;99.90;;;;;;5090900;28;20032;-63
2021/04/07 02:38:35;;;;;;;11.00;4.55;;;-1.10;99.90;;;;;;5091242;28;20032;-64
2021/04/07 02:41:00;;;;;;;7.25;4.68;;;-1.10;99.90;;;;;;5091511;28;20035;-64
2021/04/07 02:43:26;;;;;;;7.38;4.45;;;-1.20;99.90;;;;;;5091119;28;20016;-61
2021/04/07 02:45:52;;;;;;;7.40;4.53;;;-1.30;99.90;;;;;;5091010;28;20024;-64
2021/04/07 02:48:17;;;;;;;5.88;4.93;;;-1.30;99.90;;;;;;5090696;28;20032;-62
2021/04/07 02:50:43;;;;;;;10.32;4.57;;;-1.30;99.90;;;;;;5091615;28;20418;-64
2021/04/07 02:53:09;;;;;;;10.23;4.90;;;-1.30;99.90;;;;;;5090846;28;20460;-65
2021/04/07 02:55:34;;;;;;;9.75;4.72;;;-1.20;99.90;;;;;;5073449;28;20477;-64
2021/04/07 02:58:00;;;;;;;5.90;4.32;;;-1.20;99.90;;;;;;5091849;28;20039;-63
2021/04/07 03:00:26;;;;;;;6.63;4.70;;;-1.20;99.90;;;;;;5090989;28;20060;-64
2021/04/07 03:02:51;;;;;;;9.68;4.68;;;-1.20;99.90;;;;;;5091534;28;20131;-65
2021/04/07 03:05:17;;;;;;;6.50;4.45;;;-1.10;99.90;;;;;;5090900;28;20047;-63
2021/04/07 03:07:43;;;;;;;7.72;4.70;;;-1.00;99.90;;;;;;5095993;28;20024;-63
2021/04/07 03:10:10;;;;;;;7.35;4.70;;;-0.90;99.90;;;;;;5076519;28;20081;-64
2021/04/07 03:12:36;;;;;;;6.85;4.28;;;-0.90;99.90;;;;;;5095451;28;20027;-64
2021/04/07 03:15:04;;;;;;;9.52;4.22;;;-0.90;99.90;;;;;;5095460;28;20369;-62
2021/04/07 03:17:30;;;;;;;7.13;4.95;;;-0.70;99.90;;;;;;5095007;28;20024;-64
2021/04/07 03:19:56;;;;;;;8.07;4.22;;;-0.70;99.90;;;;;;5095466;28;20028;-62
2021/04/07 03:22:21;;;;;;;9.35;4.50;;;-0.80;99.90;;;;;;5094494;28;20036;-61
2021/04/07 03:24:47;;;;;;;7.60;4.95;;;-0.70;99.40;;;;;;5095414;28;20388;-65
2021/04/07 03:27:13;;;;;;;6.20;3.80;;;-0.70;98.70;;;;;;5094358;28;20040;-62
2021/04/07 03:29:38;;;;;;;6.47;4.35;;;-0.70;99.00;;;;;;5077279;28;20060;-62
2021/04/07 03:32:05;;;;;;;7.15;4.15;;;-0.70;99.00;;;;;;5095525;28;20122;-62
2021/04/07 03:34:30;;;;;;;6.20;3.75;;;-0.70;99.20;;;;;;5093912;28;20047;-61
2021/04/07 03:36:56;;;;;;;7.78;4.03;;;-0.70;99.70;;;;;;5095321;28;20453;-62
2021/04/07 03:39:21;;;;;;;10.30;4.00;;;-0.70;99.90;;;;;;5094563;28;20028;-59
2021/04/07 03:41:47;;;;;;;11.40;4.45;;;-0.70;99.40;;;;;;5094803;28;20035;-61
2021/04/07 03:44:13;;;;;;;7.05;4.30;;;-0.60;97.60;;;;;;5094684;28;20051;-62
2021/04/07 03:46:38;;;;;;;8.23;3.70;;;-0.60;97.90;;;;;;5095080;28;20032;-62
2021/04/07 03:49:04;;;;;;;11.65;4.50;;;-0.60;98.20;;;;;;5095167;28;20443;-65
2021/04/07 03:51:30;;;;;;;5.68;3.03;;;-0.60;99.40;;;;;;5094180;28;20028;-63
2021/04/07 03:53:55;;;;;;;6.68;3.60;;;-0.60;97.30;;;;;;5094694;28;20024;-62
2021/04/07 03:56:21;;;;;;;8.27;4.03;;;-0.60;98.40;;;;;;5093588;28;20043;-64
2021/04/07 03:58:47;;;;;;;6.85;3.63;;;-0.60;98.10;;;;;;5093802;28;20031;-58
2021/04/07 04:01:12;;;;;;;6.32;3.65;;;-0.60;97.90;;;;;;5093791;28;20050;-62
2021/04/07 04:03:38;;;;;;;7.15;3.80;;;-0.60;98.90;;;;;;5094484;28;20020;-62
2021/04/07 04:06:04;;;;;;;6.40;3.72;;;-0.60;97.50;;;;;;5094735;28;20032;-62
2021/04/07 04:08:30;;;;;;;7.97;3.38;;;-0.60;98.70;;;;;;5094066;28;20028;-61
2021/04/07 04:10:56;;;;;;;5.93;3.10;;;-0.60;98.10;;;;;;5094639;28;20028;-60
2021/04/07 04:13:22;;;;;;;5.80;2.72;;;-0.60;97.30;;;;;;5093791;28;20076;-61
2021/04/07 04:15:48;;;;;;;3.22;2.80;;;-0.60;96.00;;;;;;5093956;28;20400;-62
2021/04/07 04:18:14;;;;;;;6.90;2.95;;;-0.60;97.00;;;;;;5093748;28;20028;-64
2021/04/07 04:20:40;;;;;;;5.63;3.15;;;-0.60;95.60;;;;;;5094475;28;20046;-64
2021/04/07 04:23:06;;;;;;;5.78;2.80;;;-0.50;95.70;;;;;;5094528;28;20031;-63
2021/04/07 04:25:32;;;;;;;6.13;2.90;;;-0.50;94.70;;;;;;5075374;28;20097;-62
2021/04/07 04:27:57;;;;;;;4.80;2.55;;;-0.50;94.20;;;;;;5094210;28;20021;-61
2021/04/07 04:30:25;;;;;;;11.20;3.72;;;-0.50;94.70;;;;;;5075369;28;20381;-59
2021/04/07 04:32:52;;;;;;;5.97;2.55;;;-0.50;95.00;;;;;;5094037;28;20047;-65
2021/04/07 04:35:18;;;;;;;5.50;2.47;;;-0.60;93.90;;;;;;5093243;28;20461;-64
2021/04/07 04:37:45;;;;;;;7.78;3.60;;;-0.60;93.70;;;;;;5094090;28;20445;-63
2021/04/07 04:40:12;;;;;;;5.93;2.65;;;-0.60;93.80;;;;;;5093618;28;20496;-67
2021/04/07 04:42:38;;;;;;;5.03;2.55;;;-0.50;93.00;;;;;;5093889;28;20032;-64
2021/04/07 04:45:06;;;;;;;6.18;2.72;;;-0.60;94.70;;;;;;5076086;28;20441;-63
2021/04/07 04:47:32;;;;;;;4.97;2.55;;;-0.50;93.50;;;;;;5093157;28;20020;-63
2021/04/07 04:49:58;;;;;;;6.75;2.50;;;-0.60;92.70;;;;;;5094147;28;20024;-62
2021/04/07 04:52:23;;;;;;;6.35;2.65;;;-0.50;92.60;;;;;;5092649;28;20046;-63
2021/04/07 04:54:49;;;;;;;8.98;2.80;;;-0.50;92.10;;;;;;5093539;28;20028;-63
2021/04/07 04:57:15;;;;;;;7.68;2.72;;;-0.50;93.20;;;;;;5092925;28;20466;-67
2021/04/07 04:59:41;;;;;;;6.10;2.33;;;-0.60;92.70;;;;;;5093868;28;20043;-66
2021/04/07 05:02:07;;;;;;;4.10;2.75;;;-0.50;92.50;;;;;;5093752;28;20043;-62
2021/04/07 05:04:33;;;;;;;8.55;2.40;;;-0.50;92.50;;;;;;5074506;28;20034;-62
2021/04/07 05:06:59;;;;;;;5.07;2.38;;;-0.50;91.50;;;;;;5093644;28;20082;-63
2021/04/07 05:09:25;;;;;;;3.17;2.17;;;-0.50;91.00;;;;;;5074642;28;20035;-65
2021/04/07 05:11:50;;;;;;;6.35;2.42;;;-0.50;91.20;;;;;;5093039;28;20028;-62
2021/04/07 05:14:17;;;;;;;4.65;2.47;;;-0.50;91.40;;;;;;5092593;28;20054;-63
2021/04/07 05:16:43;;;;;;;6.22;2.33;;;-0.40;91.90;;;;;;5093027;28;20064;-64
2021/04/07 05:19:09;;;;;;;6.50;2.22;;;-0.40;90.40;;;;;;5093468;28;20433;-64
2021/04/07 05:21:34;;;;;;;7.65;2.63;;;-0.40;91.40;;;;;;5092563;28;20031;-65
2021/04/07 05:24:00;;;;;;;11.10;3.22;;;-0.40;91.40;;;;;;5093122;28;20031;-66
2021/04/07 05:26:26;;;;;;;6.47;2.35;;;-0.30;90.80;;;;;;5092529;28;20028;-62
2021/04/07 05:28:51;;;;;;;6.18;2.40;;;-0.30;90.20;;;;;;5092005;28;20032;-62
2021/04/07 05:31:17;;;;;;;4.93;2.30;;;-0.30;90.40;;;;;;5092493;28;20365;-65
2021/04/07 05:33:44;;;;;;;3.97;2.22;;;-0.30;88.70;;;;;;5074624;28;20028;-66
2021/04/07 05:36:15;;;;;;;4.22;2.50;;;-0.30;90.00;;;;;;5074815;28;20024;-65
2021/04/07 05:38:41;;;;;;;6.50;2.40;;;-0.30;90.00;;;;;;5075057;28;20023;-63
2021/04/07 05:41:07;;;;;;;4.65;2.25;;;-0.30;90.30;;;;;;5093089;28;20039;-61
2021/04/07 05:43:35;;;;;;;8.18;2.58;;;-0.30;89.70;;;;;;5091996;28;20020;-62
2021/04/07 05:46:02;;;;;;;5.68;2.47;;;-0.30;89.00;;;;;;5093070;28;20032;-60
2021/04/07 05:48:28;;;;;;;8.27;2.67;;;-0.30;89.80;;;;;;5092493;28;20024;-61
2021/04/07 05:50:54;;;;;;;6.40;2.55;;;-0.30;87.80;;;;;;5093004;28;20350;-60
2021/04/07 05:53:21;;;;;;;8.10;2.95;;;-0.30;89.10;;;;;;5092055;28;20024;-61
2021/04/07 05:55:49;;;;;;;4.88;2.28;;;-0.30;87.30;;;;;;5092559;28;20051;-62
2021/04/07 05:58:15;;;;;;;4.68;2.50;;;-0.20;87.50;;;;;;5091820;28;20457;-65
2021/04/07 06:00:41;;;;;;;6.55;2.80;;;-0.20;86.90;;;;;;5074181;28;20412;-65
2021/04/07 06:03:08;;;;;;;3.47;2.10;;;-0.20;85.30;;;;;;5092206;28;20024;-61
2021/04/07 06:05:38;;;;;;;5.18;2.00;;;-0.10;85.80;;;;;;5084747;28;20079;-65
2021/04/07 06:08:05;;;;;;;5.15;2.40;;;-0.10;85.10;;;;;;5092112;28;20032;-62
2021/04/07 06:10:32;;;;;;;6.53;2.58;;;-0.10;84.10;;;;;;5091130;28;20032;-63
2021/04/07 06:13:02;;;;;;;6.57;2.05;;;-0.10;84.20;;;;;;5091919;28;20048;-61
2021/04/07 06:15:28;;;;;;;;;;;0.00;82.50;;;;;;5072941;28;20392;-63
2021/04/07 06:18:07;;;;;;;6.13;2.28;;;-0.10;84.00;;;;;;5075122;28;19912;-64
2021/04/07 06:20:38;;;;;;;6.13;1.98;;;-0.10;84.00;;;;;;5071003;28;20029;-64
2021/04/07 06:23:05;;;;;;;7.03;2.38;;;0.00;84.50;;;;;;5071904;28;20039;-65
2021/04/07 06:25:33;;;;;;;5.28;2.33;;;0.00;83.60;;;;;;5070745;28;20872;-63
2021/04/07 06:28:00;;;;;;;7.85;2.10;;;0.00;84.00;;;;;;5071503;28;20462;-64
2021/04/07 06:30:41;;;;;;;3.35;2.05;;;0.10;81.60;;;;;;5070298;28;20077;-64
2021/04/07 06:33:25;;;;;;;7.35;2.35;;;0.20;81.20;;;;;;5053835;28;20381;-64
2021/04/07 06:36:03;;;;;;;7.10;2.05;;;0.30;79.90;;;;;;5087136;28;20032;-62
2021/04/07 06:38:30;;;;;;;5.72;2.10;;;0.60;79.50;;;;;;5090625;28;20051;-64
2021/04/07 06:40:57;;;;;;;4.32;2.00;;;0.70;78.80;;;;;;5091621;28;20075;-63
2021/04/07 06:43:25;;;;;;;6.30;1.63;;;0.90;78.50;;;;;;5091012;28;20049;-63
2021/04/07 06:45:51;;;;;;;3.70;1.67;;;1.10;75.90;;;;;;5091592;28;20093;-62
2021/04/07 06:48:18;;;;;;;6.88;1.92;;;1.20;75.20;;;;;;5086939;28;20066;-63
2021/04/07 06:50:46;;;;;;;4.07;1.48;;;1.30;73.60;;;;;;5072491;28;20194;-62
2021/04/07 06:53:13;;;;;;;7.35;2.08;;;1.40;73.10;;;;;;5071811;28;20028;-64
2021/04/07 06:55:39;;;;;;;6.25;1.70;;;1.50;73.40;;;;;;5071040;28;20036;-62
2021/04/07 06:58:06;;;;;;;5.38;1.52;;;1.50;73.40;;;;;;5071186;28;20035;-63
2021/04/07 07:00:33;;;;;;;6.72;1.88;;;1.60;72.10;;;;;;5070241;28;20104;-63
2021/04/07 07:03:08;;;;;;;6.38;1.98;;;1.60;72.50;;;;;;5071068;28;20082;-63
2021/04/07 07:05:36;;;;;;;6.90;1.80;;;1.70;71.60;;;;;;5070139;28;20044;-63
2021/04/07 07:08:08;;;;;;;7.07;1.90;;;1.80;71.50;;;;;;5092313;28;20023;-64
2021/04/07 07:10:41;;;;;;;5.90;1.80;;;1.80;71.30;;;;;;5091298;28;20288;-63
2021/04/07 07:13:09;;;;;;;7.28;1.80;;;1.70;70.60;;;;;;5090397;28;20048;-65
2021/04/07 07:15:35;;;;;;;5.38;1.65;;;1.80;70.30;;;;;;5085107;28;20028;-63
2021/04/07 07:18:02;;;;;;;4.57;1.45;;;1.90;69.70;;;;;;5090888;28;20028;-62
2021/04/07 07:20:30;;;;;;;9.57;1.73;;;1.80;70.60;;;;;;5084127;28;20461;-63
2021/04/07 07:22:55;;;;;;;3.15;1.27;;;1.80;70.40;;;;;;5092143;28;20031;-63
2021/04/07 07:25:21;;;;;;;5.20;1.40;;;1.70;71.00;;;;;;5091830;28;20107;-63
2021/04/07 07:27:47;;;;;;;5.78;1.70;;;1.80;71.40;;;;;;5091844;28;20406;-63
2021/04/07 07:30:14;;;;;;;5.57;1.40;;;1.90;70.90;;;;;;5091552;28;20119;-65
2021/04/07 07:32:43;;;;;;;6.78;1.38;;;2.00;70.00;;;;;;5091286;28;20081;-62
2021/04/07 07:35:13;;;;;;;6.45;1.70;;;2.00;69.70;;;;;;5091201;28;20069;-62
2021/04/07 07:37:40;;;;;;;2.17;1.13;;;2.10;68.60;;;;;;5091562;28;20112;-61
2021/04/07 07:40:20;;;;;;;5.85;1.83;;;2.00;68.70;;;;;;5073571;28;20127;-62
2021/04/07 07:42:46;;;;;;;5.70;1.20;;;2.10;69.20;;;;;;5091814;28;20411;-63
2021/04/07 07:45:13;;;;;;;4.50;1.38;;;2.20;68.70;;;;;;5091047;28;20089;-63
2021/04/07 07:47:43;;;;;;;3.53;1.38;;;2.40;67.60;;;;;;5090271;28;20036;-65
2021/04/07 07:50:11;;;;;;;3.47;1.67;;;2.60;67.50;;;;;;5090598;28;20020;-62
2021/04/07 07:52:39;;;;;;;10.40;2.47;;;2.70;66.30;;;;;;5064626;28;20029;-61
2021/04/07 07:55:19;;;;;;;7.47;1.50;;;2.80;66.50;;;;;;5073930;28;20043;-62
2021/04/07 07:57:52;;;;;;;1.95;1.40;;;2.80;65.60;;;;;;5074772;28;20489;-61
2021/04/07 08:00:19;;;;;;;6.65;1.75;;;2.70;65.90;;;;;;5055701;28;20429;-64
2021/04/07 08:02:44;;;;;;;4.60;1.38;;;2.70;65.60;;;;;;5074543;28;20029;-63
2021/04/07 08:05:20;;;;;;;3.92;1.48;;;2.60;66.40;;;;;;5073993;28;20035;-63
2021/04/07 08:07:47;;;;;;;3.85;1.42;;;2.40;67.40;;;;;;5056435;28;20052;-62
2021/04/07 08:10:14;;;;;;;6.38;1.02;;;2.40;67.00;;;;;;5074217;28;20036;-62
2021/04/07 08:12:41;;;;;;;5.22;1.23;;;2.20;66.60;;;;;;5073569;28;20025;-62
2021/04/07 08:15:08;;;;;;;4.53;1.70;;;2.20;68.30;;;;;;5091162;28;20028;-61
2021/04/07 08:17:35;;;;;;;6.72;1.30;;;2.20;68.90;;;;;;5092977;28;20038;-62
2021/04/07 08:20:01;;;;;;;8.82;1.70;;;2.30;68.30;;;;;;5093898;28;20035;-61
2021/04/07 08:22:28;;;;;;;3.40;1.17;;;2.40;68.30;;;;;;5093447;28;20016;-62
2021/04/07 08:24:56;;;;;;;4.43;1.38;;;2.50;67.10;;;;;;5094305;28;20043;-62
2021/04/07 08:27:25;;;;;;;5.25;1.80;;;2.70;66.50;;;;;;5093771;28;20113;-61
2021/04/07 08:29:51;;;;;;;6.53;1.30;;;2.80;67.10;;;;;;5094101;28;20124;-61
2021/04/07 08:32:23;;;;;;;4.47;1.50;;;2.80;66.80;;;;;;5093045;28;20054;-63
2021/04/07 08:34:50;;;;;;;7.72;1.85;;;3.00;66.20;;;;;;5094050;28;20081;-62
2021/04/07 08:37:26;;;;;;;7.43;1.98;;;3.10;66.30;;;;;;5093644;28;20024;-66
2021/04/07 08:39:52;;;;;;;3.95;1.40;;;3.00;66.60;;;;;;5093851;28;20085;-63
2021/04/07 08:42:18;;;;;;;5.53;1.98;;;3.00;67.20;;;;;;5093587;28;20024;-66
2021/04/07 08:44:45;;;;;;;5.22;1.77;;;3.10;67.90;;;;;;5093036;28;20020;-62
2021/04/07 08:47:34;;;;;;;6.95;1.73;;;3.20;68.60;;;;;;5093650;28;20095;-66
2021/04/07 08:50:05;;;;;;;1.55;1.30;;;3.10;69.30;;;;;;5093108;28;20078;-64
2021/04/07 08:52:30;;;;;;;4.47;1.50;;;3.10;69.30;;;;;;5070169;28;20074;-64
2021/04/07 08:54:59;;;;;;;3.72;1.30;;;3.30;68.90;;;;;;5073412;28;20028;-62
2021/04/07 08:57:33;;;;;;;4.65;1.30;;;3.40;68.60;;;;;;5072582;28;20381;-64
2021/04/07 09:00:11;;;;;;;5.03;1.40;;;3.60;66.90;;;;;;5072994;28;20096;-62
2021/04/07 09:02:51;;;;;;;5.75;1.38;;;3.80;67.50;;;;;;5083426;28;20032;-63
2021/04/07 09:05:28;;;;;;;5.18;1.05;;;4.00;64.30;;;;;;5066655;28;20040;-65
2021/04/07 09:07:56;;;;;;;5.30;1.17;;;4.10;64.20;;;;;;5092480;28;20036;-61
2021/04/07 09:10:22;;;;;;;4.88;1.33;;;4.00;63.50;;;;;;5073737;28;20063;-63
2021/04/07 09:12:51;;;;;;;4.63;1.55;;;3.70;64.90;;;;;;5087487;28;20051;-64
2021/04/07 09:15:24;;;;;;;5.57;1.17;;;3.40;65.90;;;;;;5092236;28;20036;-66
2021/04/07 09:17:55;;;;;;;5.65;1.67;;;3.20;68.30;;;;;;5091930;28;20036;-63
2021/04/07 09:21:00;;;;;;;1.92;1.50;;;3.20;69.70;;;;;;5089713;28;20036;-65
2021/04/07 09:23:30;;;;;;;2.17;1.40;;;3.10;70.60;;;;;;5085592;28;20032;-62
2021/04/07 09:25:59;;;;;;;4.30;1.70;;;3.20;71.20;;;;;;5074367;28;20468;-62
2021/04/07 09:28:36;;;;;;;3.70;1.58;;;3.20;71.20;;;;;;5091787;28;20085;-63
2021/04/07 09:31:09;;;;;;;5.68;1.90;;;3.30;69.90;;;;;;5074508;28;20386;-63
2021/04/07 09:33:43;;;;;;;2.78;1.40;;;3.30;70.50;;;;;;5091044;28;20409;-63
2021/04/07 09:36:10;;;;;;;3.72;1.48;;;3.60;70.40;;;;;;5084795;28;20040;-62
2021/04/07 09:38:45;;;;;;;6.00;1.60;;;3.70;68.30;;;;;;5091447;28;20028;-63
2021/04/07 09:41:22;;;;;;;5.07;1.70;;;3.80;67.90;;;;;;5066377;28;20031;-63
2021/04/07 09:43:49;;;;;;;2.55;1.52;;;3.90;68.90;;;;;;5092235;28;20525;-63
2021/04/07 09:46:15;;;;;;;5.30;2.35;;;4.00;67.30;;;;;;5091737;28;20039;-61
2021/04/07 09:48:42;;;;;;;3.65;1.63;;;4.00;65.80;;;;;;5091211;28;20028;-63
2021/04/07 09:51:34;;;;;;;4.93;1.48;;;3.90;66.10;;;;;;5091397;28;20491;-62
2021/04/07 09:54:08;;;;;;;4.38;1.63;;;4.00;65.30;;;;;;5071694;28;20032;-62
2021/04/07 09:57:03;;;;;;;4.18;1.50;;;4.00;65.40;;;;;;5090880;28;20044;-64
2021/04/07 09:59:44;;;;;;;4.25;1.50;;;4.20;63.50;;;;;;5091373;28;20070;-63
2021/04/07 10:02:23;;;;;;;3.80;1.15;;;4.50;62.90;;;;;;5091795;28;20020;-63
2021/04/07 10:04:50;;;;;;;3.08;1.27;;;4.80;61.50;;;;;;5073261;28;20020;-63
2021/04/07 10:07:18;;;;;;;2.25;1.30;;;5.00;61.60;;;;;;5091731;28;20113;-63
2021/04/07 10:09:46;;;;;;;2.13;1.30;;;5.10;60.50;;;;;;5091341;28;20024;-63
2021/04/07 10:12:12;;;;;;;3.78;1.27;;;5.20;59.20;;;;;;5091479;28;20023;-64
2021/04/07 10:14:39;;;;;;;5.60;1.70;;;5.20;60.20;;;;;;5080979;28;20149;-63
2021/04/07 10:17:12;;;;;;;3.80;1.88;;;5.20;59.90;;;;;;5091189;28;20054;-63
2021/04/07 10:19:39;;;;;;;4.55;1.88;;;5.00;60.00;;;;;;5090730;28;20446;-62
2021/04/07 10:22:07;;;;;;;6.30;1.58;;;5.10;60.60;;;;;;5091512;28;20028;-62
2021/04/07 10:24:36;;;;;;;5.88;1.75;;;5.20;59.30;;;;;;5090921;28;20032;-63
2021/04/07 10:27:02;;;;;;;3.38;1.38;;;5.10;59.90;;;;;;5091471;28;20059;-63
2021/04/07 10:29:27;;;;;;;7.05;2.00;;;5.00;60.50;;;;;;5090590;28;20410;-64
2021/04/07 10:32:00;;;;;;;6.05;1.90;;;4.90;61.40;;;;;;5091908;28;20106;-64
2021/04/07 10:34:34;;;;;;;5.28;1.75;;;4.70;62.90;;;;;;5090124;28;20032;-64
2021/04/07 10:37:03;;;;;;;6.82;1.80;;;4.40;63.60;;;;;;5091636;28;20454;-61
2021/04/07 10:39:42;;;;;;;5.83;1.87;;;4.30;64.60;;;;;;5089964;28;20063;-62
2021/04/07 10:42:19;;;;;;;6.22;1.88;;;4.30;64.80;;;;;;5065770;28;20289;-63
2021/04/07 10:44:56;;;;;;;3.42;1.80;;;4.40;64.90;;;;;;5089812;28;20106;-62
2021/04/07 10:47:22;;;;;;;6.03;1.70;;;4.50;63.10;;;;;;5090134;28;20060;-67
2021/04/07 10:49:58;;;;;;;6.22;1.45;;;4.30;62.80;;;;;;5091136;28;20047;-63
2021/04/07 10:52:37;;;;;;;4.20;1.67;;;4.30;62.40;;;;;;5090305;28;20028;-66
2021/04/07 10:55:12;;;;;;;5.80;1.67;;;4.40;62.60;;;;;;5091194;28;20028;-64
2021/04/07 10:57:42;;;;;;;6.28;1.40;;;4.70;61.80;;;;;;5090378;28;20032;-63
2021/04/07 11:00:23;;;;;;;4.45;1.23;;;4.80;59.20;;;;;;5091418;28;20023;-64
2021/04/07 11:02:49;;;;;;;4.82;1.20;;;4.70;59.20;;;;;;5090679;28;20023;-64
2021/04/07 11:05:17;;;;;;;3.20;1.08;;;4.90;59.60;;;;;;5090005;28;20400;-64
2021/04/07 11:07:43;;;;;;;5.47;1.40;;;5.20;58.50;;;;;;5090365;28;20028;-63
2021/04/07 11:10:12;;;;;;;2.83;1.20;;;5.40;58.40;;;;;;5072543;28;20481;-62
2021/04/07 11:12:38;;;;;;;3.83;1.00;;;5.60;56.10;;;;;;5089705;28;20388;-63
2021/04/07 11:15:08;;;;;;;3.92;1.00;;;5.70;53.80;;;;;;5090681;28;20032;-63
2021/04/07 11:17:34;;;;;;;4.18;1.75;;;5.70;55.30;;;;;;5089666;28;20035;-63
2021/04/07 11:20:00;;;;;;;4.60;1.20;;;5.70;54.20;;;;;;5082260;28;20028;-63
2021/04/07 11:22:25;;;;;;;4.15;1.13;;;5.80;54.40;;;;;;5091205;28;20028;-63
2021/04/07 11:24:52;;;;;;;3.58;1.20;;;5.70;54.50;;;;;;5090107;28;20028;-63
2021/04/07 11:27:18;;;;;;;6.13;1.10;;;5.60;52.50;;;;;;5093225;28;20043;-63
2021/04/07 11:29:44;;;;;;;6.05;1.88;;;5.60;55.10;;;;;;5093979;28;20397;-65
2021/04/07 11:32:10;;;;;;;2.90;1.10;;;5.60;55.20;;;;;;5085975;28;20028;-65
2021/04/07 11:34:46;;;;;;;4.07;1.13;;;5.70;55.40;;;;;;5075595;28;20031;-63
2021/04/07 11:39:52;;;;;;;6.45;1.60;;;5.60;53.50;;;;;;5093934;28;20020;-63
2021/04/07 11:44:43;;;;;;;5.32;1.30;;;5.50;53.00;;;;;;5093107;28;20139;-62
2021/04/07 11:47:09;;;;;;;6.90;1.42;;;5.60;53.90;;;;;;5093948;28;20107;-61
2021/04/07 11:49:36;;;;;;;5.40;1.17;;;5.80;51.80;;;;;;5093659;28;20453;-61
2021/04/07 11:52:02;;;;;;;3.25;1.23;;;5.80;50.10;;;;;;5094346;28;20091;-62
2021/04/07 11:54:28;;;;;;;4.68;1.08;;;6.00;49.10;;;;;;5093364;28;20115;-61
2021/04/07 11:56:53;;;;;;;5.93;1.20;;;6.20;48.80;;;;;;5093724;28;20139;-63
2021/04/07 11:59:22;;;;;;;11.25;1.65;;;6.20;48.70;;;;;;5093898;28;20451;-62
2021/04/07 12:01:49;;;;;;;6.40;1.23;;;6.10;50.80;;;;;;5093267;28;20035;-62
2021/04/07 12:04:15;;;;;;;3.15;0.90;;;6.10;49.40;;;;;;5074598;28;20036;-62
2021/04/07 12:06:44;;;;;;;5.13;1.50;;;6.20;50.90;;;;;;5078945;28;20115;-62
2021/04/07 12:09:10;;;;;;;3.63;1.35;;;6.30;49.20;;;;;;5074538;28;20033;-63
2021/04/07 12:11:37;;;;;;;3.15;1.08;;;6.30;49.00;;;;;;5073897;28;20108;-62
2021/04/07 12:14:03;;;;;;;3.42;1.08;;;6.00;48.90;;;;;;5072019;28;20071;-62
2021/04/07 12:16:29;;;;;;;3.17;1.10;;;5.70;49.70;;;;;;5092549;28;20036;-63
2021/04/07 12:18:55;;;;;;;2.92;1.20;;;5.40;50.70;;;;;;5093242;28;20483;-63
2021/04/07 12:21:22;;;;;;;5.78;1.20;;;5.20;52.20;;;;;;5093327;28;20027;-65
2021/04/07 12:23:48;;;;;;;4.88;1.70;;;5.10;53.60;;;;;;5092609;28;20032;-62
2021/04/07 12:26:15;;;;;;;5.75;1.30;;;5.00;54.80;;;;;;5093018;28;20036;-63
2021/04/07 12:28:45;;;;;;;4.00;1.30;;;5.10;53.50;;;;;;5092894;28;20055;-62
2021/04/07 12:31:14;;;;;;;6.13;1.42;;;5.20;54.10;;;;;;5067594;28;20106;-63
2021/04/07 12:33:40;;;;;;;1.83;1.00;;;5.30;53.70;;;;;;5066891;28;20111;-62
2021/04/07 12:36:08;;;;;;;5.90;1.40;;;5.50;53.80;;;;;;5093690;28;20116;-63
2021/04/07 12:38:35;;;;;;;4.90;1.30;;;5.60;53.90;;;;;;5091702;28;20082;-63
2021/04/07 12:41:06;;;;;;;3.05;1.20;;;5.90;53.60;;;;;;5093256;28;20028;-63
2021/04/07 12:43:31;;;;;;;10.18;1.15;;;5.90;52.70;;;;;;5092505;28;20028;-63
2021/04/07 12:45:57;;;;;;;2.60;1.20;;;5.90;53.50;;;;;;5092683;28;20089;-64
2021/04/07 12:48:23;;;;;;;3.08;1.08;;;5.90;53.40;;;;;;5092971;28;20080;-66
2021/04/07 12:50:48;;;;;;;3.03;0.98;;;6.00;55.10;;;;;;5093096;28;20056;-64
2021/04/07 12:53:33;;;;;;;3.95;1.10;;;6.10;52.70;;;;;;5092802;28;20040;-64
2021/04/07 12:56:17;;;;;;;2.67;1.00;;;6.20;52.00;;;;;;5092653;28;20087;-64
2021/04/07 12:58:44;;;;;;;3.97;1.48;;;6.30;52.50;;;;;;5092425;28;20031;-63
2021/04/07 13:01:10;;;;;;;4.13;1.05;;;6.40;51.80;;;;;;5092537;28;20158;-62
2021/04/07 13:03:36;;;;;;;4.90;1.38;;;6.20;51.70;;;;;;5073764;28;20115;-62